sensor_id;sensor_type;location;lat;lon;timestamp;pressure;altitude;pressure_sealevel;temperature;humidity
85055;BME280;75391;48.300;16.352;2024-01-07T00:01:27;98910.59;;;4.59;100.00
85055;BME280;75391;48.300;16.352;2024-01-07T00:03:52;98908.38;;;4.23;100.00
85055;BME280;75391;48.300;16.352;2024-01-07T00:06:18;98903.66;;;4.33;100.00
85055;BME280;75391;48.300;16.352;2024-01-07T00:08:43;98905.66;;;4.51;100.00
85055;BME280;75391;48.300;16.352;2024-01-07T00:11:09;98903.22;;;4.20;100.00
85055;BME280;75391;48.300;16.352;2024-01-07T00:13:35;98904.41;;;4.36;100.00
85055;BME280;75391;48.300;16.352;2024-01-07T00:16:00;98898.75;;;4.48;100.00
85055;BME280;75391;48.300;16.352;2024-01-07T00:18:26;98897.16;;;4.68;100.00
85055;BME280;75391;48.300;16.352;2024-01-07T00:20:51;98908.50;;;4.43;100.00
85055;BME280;75391;48.300;16.352;2024-01-07T00:23:16;98899.66;;;4.47;100.00
85055;BME280;75391;48.300;16.352;2024-01-07T00:25:42;98900.81;;;4.14;100.00
85055;BME280;75391;48.300;16.352;2024-01-07T00:28:07;98906.91;;;4.64;100.00
85055;BME280;75391;48.300;16.352;2024-01-07T00:30:33;98903.94;;;4.25;100.00
85055;BME280;75391;48.300;16.352;2024-01-07T00:32:59;98912.16;;;4.39;100.00
85055;BME280;75391;48.300;16.352;2024-01-07T00:35:24;98911.63;;;4.54;100.00
85055;BME280;75391;48.300;16.352;2024-01-07T00:37:50;98912.25;;;4.36;100.00
85055;BME280;75391;48.300;16.352;2024-01-07T00:40:15;98920.28;;;4.57;100.00
85055;BME280;75391;48.300;16.352;2024-01-07T00:42:41;98910.72;;;4.31;100.00
85055;BME280;75391;48.300;16.352;2024-01-07T00:45:07;98923.94;;;4.76;100.00
85055;BME280;75391;48.300;16.352;2024-01-07T00:47:32;98918.97;;;4.68;100.00
85055;BME280;75391;48.300;16.352;2024-01-07T00:49:58;98915.41;;;4.21;100.00
85055;BME280;75391;48.300;16.352;2024-01-07T00:52:23;98906.19;;;4.36;100.00
85055;BME280;75391;48.300;16.352;2024-01-07T00:54:49;98915.25;;;4.25;100.00
85055;BME280;75391;48.300;16.352;2024-01-07T00:57:14;98917.28;;;4.42;100.00
85055;BME280;75391;48.300;16.352;2024-01-07T00:59:40;98918.28;;;4.38;100.00
85055;BME280;75391;48.300;16.352;2024-01-07T01:02:05;98916.84;;;4.29;100.00
85055;BME280;75391;48.300;16.352;2024-01-07T01:04:31;98919.34;;;4.33;100.00
85055;BME280;75391;48.300;16.352;2024-01-07T01:06:56;98925.56;;;4.30;100.00
85055;BME280;75391;48.300;16.352;2024-01-07T01:09:22;98923.63;;;4.60;100.00
85055;BME280;75391;48.300;16.352;2024-01-07T01:11:47;98922.84;;;4.33;100.00
85055;BME280;75391;48.300;16.352;2024-01-07T01:14:13;98923.91;;;4.52;100.00
85055;BME280;75391;48.300;16.352;2024-01-07T01:16:38;98934.09;;;4.35;100.00
85055;BME280;75391;48.300;16.352;2024-01-07T01:19:04;98928.66;;;4.41;100.00
85055;BME280;75391;48.300;16.352;2024-01-07T01:21:29;98924.13;;;3.95;100.00
85055;BME280;75391;48.300;16.352;2024-01-07T01:23:55;98931.38;;;4.38;100.00
85055;BME280;75391;48.300;16.352;2024-01-07T01:26:20;98935.88;;;4.60;100.00
85055;BME280;75391;48.300;16.352;2024-01-07T01:28:46;98936.94;;;4.29;100.00
85055;BME280;75391;48.300;16.352;2024-01-07T01:31:14;98936.78;;;4.34;100.00
85055;BME280;75391;48.300;16.352;2024-01-07T01:33:40;98953.06;;;3.62;100.00
85055;BME280;75391;48.300;16.352;2024-01-07T01:36:06;98949.69;;;4.38;100.00
85055;BME280;75391;48.300;16.352;2024-01-07T01:38:31;98942.31;;;4.24;100.00
85055;BME280;75391;48.300;16.352;2024-01-07T01:40:57;98941.84;;;3.87;100.00
85055;BME280;75391;48.300;16.352;2024-01-07T01:43:31;98940.13;;;4.37;100.00
85055;BME280;75391;48.300;16.352;2024-01-07T01:45:57;98941.84;;;3.87;100.00
85055;BME280;75391;48.300;16.352;2024-01-07T01:48:24;98952.44;;;4.35;100.00
85055;BME280;75391;48.300;16.352;2024-01-07T01:50:50;98933.56;;;4.25;100.00
85055;BME280;75391;48.300;16.352;2024-01-07T01:53:16;98934.41;;;4.26;100.00
85055;BME280;75391;48.300;16.352;2024-01-07T01:55:42;98935.69;;;4.14;100.00
85055;BME280;75391;48.300;16.352;2024-01-07T01:58:12;98938.63;;;4.30;100.00
85055;BME280;75391;48.300;16.352;2024-01-07T02:00:38;98939.97;;;4.17;100.00
85055;BME280;75391;48.300;16.352;2024-01-07T02:03:04;98940.03;;;4.15;100.00
85055;BME280;75391;48.300;16.352;2024-01-07T02:05:29;98932.97;;;3.64;100.00
85055;BME280;75391;48.300;16.352;2024-01-07T02:07:55;98937.41;;;3.89;100.00
85055;BME280;75391;48.300;16.352;2024-01-07T02:10:20;98943.59;;;3.86;100.00
85055;BME280;75391;48.300;16.352;2024-01-07T02:12:46;98932.91;;;4.19;100.00
85055;BME280;75391;48.300;16.352;2024-01-07T02:15:11;98936.22;;;4.24;100.00
85055;BME280;75391;48.300;16.352;2024-01-07T02:17:37;98931.81;;;3.99;100.00
85055;BME280;75391;48.300;16.352;2024-01-07T02:20:02;98925.59;;;4.04;100.00
85055;BME280;75391;48.300;16.352;2024-01-07T02:22:28;98935.97;;;3.79;100.00
85055;BME280;75391;48.300;16.352;2024-01-07T02:24:53;98938.19;;;4.17;100.00
85055;BME280;75391;48.300;16.352;2024-01-07T02:27:19;98938.19;;;3.91;100.00
85055;BME280;75391;48.300;16.352;2024-01-07T02:29:44;98935.16;;;3.22;100.00
85055;BME280;75391;48.300;16.352;2024-01-07T02:32:09;98933.81;;;3.09;100.00
85055;BME280;75391;48.300;16.352;2024-01-07T02:34:35;98935.81;;;3.29;100.00
85055;BME280;75391;48.300;16.352;2024-01-07T02:37:00;98939.69;;;3.43;100.00
85055;BME280;75391;48.300;16.352;2024-01-07T02:39:26;98944.84;;;3.46;100.00
85055;BME280;75391;48.300;16.352;2024-01-07T02:41:51;98941.63;;;3.38;100.00
85055;BME280;75391;48.300;16.352;2024-01-07T02:44:17;98953.28;;;3.55;100.00
85055;BME280;75391;48.300;16.352;2024-01-07T02:46:42;98953.84;;;3.92;100.00
85055;BME280;75391;48.300;16.352;2024-01-07T02:49:08;98945.59;;;3.78;100.00
85055;BME280;75391;48.300;16.352;2024-01-07T02:51:33;98948.22;;;4.05;100.00
85055;BME280;75391;48.300;16.352;2024-01-07T02:53:59;98948.19;;;3.52;100.00
85055;BME280;75391;48.300;16.352;2024-01-07T02:56:24;98946.97;;;3.34;100.00
85055;BME280;75391;48.300;16.352;2024-01-07T02:58:50;98932.66;;;3.73;100.00
85055;BME280;75391;48.300;16.352;2024-01-07T03:01:15;98932.13;;;3.90;100.00
85055;BME280;75391;48.300;16.352;2024-01-07T03:03:40;98935.91;;;3.54;100.00
85055;BME280;75391;48.300;16.352;2024-01-07T03:06:06;98940.09;;;3.59;100.00
85055;BME280;75391;48.300;16.352;2024-01-07T03:08:33;98949.88;;;3.81;100.00
85055;BME280;75391;48.300;16.352;2024-01-07T03:10:58;98952.22;;;3.34;100.00
85055;BME280;75391;48.300;16.352;2024-01-07T03:13:23;98944.31;;;3.35;100.00
85055;BME280;75391;48.300;16.352;2024-01-07T03:15:49;98952.72;;;3.73;100.00
85055;BME280;75391;48.300;16.352;2024-01-07T03:18:14;98954.19;;;3.26;100.00
85055;BME280;75391;48.300;16.352;2024-01-07T03:20:40;98960.91;;;3.34;100.00
85055;BME280;75391;48.300;16.352;2024-01-07T03:23:05;98958.69;;;2.91;100.00
85055;BME280;75391;48.300;16.352;2024-01-07T03:25:31;98963.50;;;3.05;100.00
85055;BME280;75391;48.300;16.352;2024-01-07T03:28:21;98977.28;;;3.10;100.00
85055;BME280;75391;48.300;16.352;2024-01-07T03:30:47;98961.41;;;2.55;100.00
85055;BME280;75391;48.300;16.352;2024-01-07T03:33:12;98968.59;;;3.39;100.00
85055;BME280;75391;48.300;16.352;2024-01-07T03:35:38;98975.34;;;3.46;100.00
85055;BME280;75391;48.300;16.352;2024-01-07T03:38:03;98969.59;;;3.05;100.00
85055;BME280;75391;48.300;16.352;2024-01-07T03:40:29;98963.19;;;3.45;100.00
85055;BME280;75391;48.300;16.352;2024-01-07T03:42:54;98961.06;;;3.58;100.00
85055;BME280;75391;48.300;16.352;2024-01-07T03:45:20;98954.47;;;3.72;100.00
85055;BME280;75391;48.300;16.352;2024-01-07T03:47:45;98969.47;;;3.38;100.00
85055;BME280;75391;48.300;16.352;2024-01-07T03:50:10;98970.47;;;3.90;100.00
85055;BME280;75391;48.300;16.352;2024-01-07T03:52:36;98963.81;;;4.08;100.00
85055;BME280;75391;48.300;16.352;2024-01-07T03:55:01;98957.34;;;3.65;100.00
85055;BME280;75391;48.300;16.352;2024-01-07T03:57:27;98964.41;;;3.61;100.00
85055;BME280;75391;48.300;16.352;2024-01-07T03:59:52;98967.59;;;3.13;100.00
85055;BME280;75391;48.300;16.352;2024-01-07T04:02:18;98966.00;;;3.09;100.00
85055;BME280;75391;48.300;16.352;2024-01-07T04:04:43;98973.66;;;3.14;100.00
85055;BME280;75391;48.300;16.352;2024-01-07T04:07:09;98970.94;;;3.18;100.00
85055;BME280;75391;48.300;16.352;2024-01-07T04:09:34;98967.41;;;3.21;100.00
85055;BME280;75391;48.300;16.352;2024-01-07T04:11:59;98974.56;;;3.44;100.00
85055;BME280;75391;48.300;16.352;2024-01-07T04:14:25;98973.09;;;3.34;100.00
85055;BME280;75391;48.300;16.352;2024-01-07T04:16:50;98967.88;;;3.04;100.00
85055;BME280;75391;48.300;16.352;2024-01-07T04:19:16;98961.97;;;3.55;100.00
85055;BME280;75391;48.300;16.352;2024-01-07T04:21:45;98964.59;;;2.98;100.00
85055;BME280;75391;48.300;16.352;2024-01-07T04:24:11;98975.75;;;3.03;100.00
85055;BME280;75391;48.300;16.352;2024-01-07T04:26:36;98970.50;;;3.34;100.00
85055;BME280;75391;48.300;16.352;2024-01-07T04:29:02;98983.16;;;2.22;100.00
85055;BME280;75391;48.300;16.352;2024-01-07T04:31:27;98990.88;;;2.90;100.00
85055;BME280;75391;48.300;16.352;2024-01-07T04:33:53;98992.06;;;2.78;100.00
85055;BME280;75391;48.300;16.352;2024-01-07T04:36:18;98990.22;;;3.14;100.00
85055;BME280;75391;48.300;16.352;2024-01-07T04:38:44;98992.44;;;3.28;100.00
85055;BME280;75391;48.300;16.352;2024-01-07T04:41:09;98991.09;;;3.43;100.00
85055;BME280;75391;48.300;16.352;2024-01-07T04:43:35;98988.78;;;3.34;100.00
85055;BME280;75391;48.300;16.352;2024-01-07T04:46:00;98994.66;;;3.40;100.00
85055;BME280;75391;48.300;16.352;2024-01-07T04:48:25;98999.72;;;3.46;100.00
85055;BME280;75391;48.300;16.352;2024-01-07T04:50:51;99004.13;;;3.15;100.00
85055;BME280;75391;48.300;16.352;2024-01-07T04:53:16;99004.31;;;3.38;100.00
85055;BME280;75391;48.300;16.352;2024-01-07T04:55:42;99009.53;;;3.38;100.00
85055;BME280;75391;48.300;16.352;2024-01-07T04:58:07;99003.78;;;3.27;100.00
85055;BME280;75391;48.300;16.352;2024-01-07T05:00:33;99003.19;;;2.86;100.00
85055;BME280;75391;48.300;16.352;2024-01-07T05:02:58;99010.97;;;3.19;100.00
85055;BME280;75391;48.300;16.352;2024-01-07T05:05:24;99017.75;;;3.25;100.00
85055;BME280;75391;48.300;16.352;2024-01-07T05:07:49;99022.94;;;2.95;100.00
85055;BME280;75391;48.300;16.352;2024-01-07T05:10:14;99013.97;;;2.73;100.00
85055;BME280;75391;48.300;16.352;2024-01-07T05:12:40;99023.22;;;2.86;100.00
85055;BME280;75391;48.300;16.352;2024-01-07T05:15:06;99028.09;;;2.98;100.00
85055;BME280;75391;48.300;16.352;2024-01-07T05:17:32;99040.41;;;3.24;100.00
85055;BME280;75391;48.300;16.352;2024-01-07T05:19:57;99035.13;;;3.27;100.00
85055;BME280;75391;48.300;16.352;2024-01-07T05:22:24;99035.25;;;2.91;100.00
85055;BME280;75391;48.300;16.352;2024-01-07T05:24:49;99034.28;;;3.25;100.00
85055;BME280;75391;48.300;16.352;2024-01-07T05:27:14;99041.19;;;3.28;100.00
85055;BME280;75391;48.300;16.352;2024-01-07T05:29:44;99039.78;;;3.16;100.00
85055;BME280;75391;48.300;16.352;2024-01-07T05:32:10;99042.31;;;3.48;100.00
85055;BME280;75391;48.300;16.352;2024-01-07T05:34:35;99035.31;;;3.19;100.00
85055;BME280;75391;48.300;16.352;2024-01-07T05:37:00;99032.44;;;2.65;100.00
85055;BME280;75391;48.300;16.352;2024-01-07T05:39:26;99031.91;;;3.17;100.00
85055;BME280;75391;48.300;16.352;2024-01-07T05:41:51;99038.25;;;3.09;100.00
85055;BME280;75391;48.300;16.352;2024-01-07T05:44:17;99038.16;;;2.47;100.00
85055;BME280;75391;48.300;16.352;2024-01-07T05:46:42;99056.41;;;2.47;100.00
85055;BME280;75391;48.300;16.352;2024-01-07T05:49:08;99067.22;;;2.67;100.00
85055;BME280;75391;48.300;16.352;2024-01-07T05:51:33;99072.84;;;2.14;100.00
85055;BME280;75391;48.300;16.352;2024-01-07T05:53:59;99078.53;;;2.32;100.00
85055;BME280;75391;48.300;16.352;2024-01-07T05:56:24;99069.22;;;2.56;100.00
85055;BME280;75391;48.300;16.352;2024-01-07T05:58:50;99071.25;;;2.45;100.00
85055;BME280;75391;48.300;16.352;2024-01-07T06:01:19;99061.84;;;2.02;100.00
85055;BME280;75391;48.300;16.352;2024-01-07T06:03:46;99063.81;;;2.63;100.00
85055;BME280;75391;48.300;16.352;2024-01-07T06:06:12;99076.56;;;2.40;100.00
85055;BME280;75391;48.300;16.352;2024-01-07T06:08:38;99082.13;;;2.26;100.00
85055;BME280;75391;48.300;16.352;2024-01-07T06:11:03;99079.97;;;2.44;100.00
85055;BME280;75391;48.300;16.352;2024-01-07T06:13:29;99087.59;;;2.51;100.00
85055;BME280;75391;48.300;16.352;2024-01-07T06:15:54;99095.84;;;2.34;100.00
85055;BME280;75391;48.300;16.352;2024-01-07T06:18:20;99099.34;;;2.33;100.00
85055;BME280;75391;48.300;16.352;2024-01-07T06:20:45;99093.53;;;2.58;100.00
85055;BME280;75391;48.300;16.352;2024-01-07T06:23:11;99111.22;;;2.45;100.00
85055;BME280;75391;48.300;16.352;2024-01-07T06:25:36;99105.41;;;2.34;100.00
85055;BME280;75391;48.300;16.352;2024-01-07T06:28:01;99104.50;;;1.98;100.00
85055;BME280;75391;48.300;16.352;2024-01-07T06:30:27;99109.72;;;2.35;100.00
85055;BME280;75391;48.300;16.352;2024-01-07T06:32:52;99110.50;;;1.61;100.00
85055;BME280;75391;48.300;16.352;2024-01-07T06:35:18;99115.69;;;2.03;100.00
85055;BME280;75391;48.300;16.352;2024-01-07T06:37:43;99116.59;;;2.00;100.00
85055;BME280;75391;48.300;16.352;2024-01-07T06:40:09;99121.72;;;2.05;100.00
85055;BME280;75391;48.300;16.352;2024-01-07T06:42:35;99120.38;;;1.87;100.00
85055;BME280;75391;48.300;16.352;2024-01-07T06:45:00;99118.25;;;2.04;100.00
85055;BME280;75391;48.300;16.352;2024-01-07T06:47:26;99123.78;;;1.91;100.00
85055;BME280;75391;48.300;16.352;2024-01-07T06:49:51;99123.19;;;1.76;100.00
85055;BME280;75391;48.300;16.352;2024-01-07T06:52:17;99123.16;;;1.79;100.00
85055;BME280;75391;48.300;16.352;2024-01-07T06:54:42;99132.31;;;1.97;100.00
85055;BME280;75391;48.300;16.352;2024-01-07T06:57:08;99139.88;;;2.09;100.00
85055;BME280;75391;48.300;16.352;2024-01-07T06:59:33;99135.03;;;1.93;100.00
85055;BME280;75391;48.300;16.352;2024-01-07T07:01:58;99142.13;;;1.86;100.00
85055;BME280;75391;48.300;16.352;2024-01-07T07:04:24;99144.88;;;1.78;100.00
85055;BME280;75391;48.300;16.352;2024-01-07T07:06:49;99148.09;;;1.49;100.00
85055;BME280;75391;48.300;16.352;2024-01-07T07:09:15;99146.69;;;1.75;100.00
85055;BME280;75391;48.300;16.352;2024-01-07T07:11:41;99150.56;;;1.54;100.00
85055;BME280;75391;48.300;16.352;2024-01-07T07:14:06;99154.78;;;1.61;100.00
85055;BME280;75391;48.300;16.352;2024-01-07T07:16:32;99159.06;;;1.64;100.00
85055;BME280;75391;48.300;16.352;2024-01-07T07:18:57;99154.63;;;1.24;100.00
85055;BME280;75391;48.300;16.352;2024-01-07T07:21:23;99174.19;;;1.45;100.00
85055;BME280;75391;48.300;16.352;2024-01-07T07:23:48;99170.78;;;1.86;100.00
85055;BME280;75391;48.300;16.352;2024-01-07T07:26:14;99177.59;;;1.50;100.00
85055;BME280;75391;48.300;16.352;2024-01-07T07:28:39;99184.44;;;1.54;100.00
85055;BME280;75391;48.300;16.352;2024-01-07T07:31:05;99173.75;;;1.68;100.00
85055;BME280;75391;48.300;16.352;2024-01-07T07:33:30;99170.00;;;1.81;100.00
85055;BME280;75391;48.300;16.352;2024-01-07T07:35:56;99171.19;;;1.66;100.00
85055;BME280;75391;48.300;16.352;2024-01-07T07:38:21;99180.66;;;1.70;100.00
85055;BME280;75391;48.300;16.352;2024-01-07T07:40:46;99180.00;;;1.59;100.00
85055;BME280;75391;48.300;16.352;2024-01-07T07:43:12;99193.28;;;1.90;100.00
85055;BME280;75391;48.300;16.352;2024-01-07T07:45:37;99205.56;;;1.85;100.00
85055;BME280;75391;48.300;16.352;2024-01-07T07:48:03;99215.88;;;1.45;100.00
85055;BME280;75391;48.300;16.352;2024-01-07T07:50:28;99220.53;;;1.74;100.00
85055;BME280;75391;48.300;16.352;2024-01-07T07:52:54;99212.72;;;1.74;100.00
85055;BME280;75391;48.300;16.352;2024-01-07T07:55:19;99208.88;;;1.47;100.00
85055;BME280;75391;48.300;16.352;2024-01-07T07:57:45;99208.25;;;1.80;100.00
85055;BME280;75391;48.300;16.352;2024-01-07T08:00:10;99213.78;;;1.64;100.00
85055;BME280;75391;48.300;16.352;2024-01-07T08:02:36;99210.19;;;1.69;100.00
85055;BME280;75391;48.300;16.352;2024-01-07T08:05:01;99215.75;;;1.51;100.00
85055;BME280;75391;48.300;16.352;2024-01-07T08:07:27;99229.41;;;1.64;100.00
85055;BME280;75391;48.300;16.352;2024-01-07T08:09:52;99231.31;;;1.54;100.00
85055;BME280;75391;48.300;16.352;2024-01-07T08:12:17;99229.91;;;1.38;100.00
85055;BME280;75391;48.300;16.352;2024-01-07T08:14:43;99217.34;;;1.58;100.00
85055;BME280;75391;48.300;16.352;2024-01-07T08:17:08;99230.69;;;1.41;100.00
85055;BME280;75391;48.300;16.352;2024-01-07T08:19:35;99243.38;;;1.59;100.00
85055;BME280;75391;48.300;16.352;2024-01-07T08:22:01;99246.31;;;1.43;100.00
85055;BME280;75391;48.300;16.352;2024-01-07T08:24:26;99245.78;;;1.22;100.00
85055;BME280;75391;48.300;16.352;2024-01-07T08:26:52;99254.47;;;1.21;100.00
85055;BME280;75391;48.300;16.352;2024-01-07T08:29:17;99260.25;;;1.39;100.00
85055;BME280;75391;48.300;16.352;2024-01-07T08:31:43;99250.16;;;1.20;100.00
85055;BME280;75391;48.300;16.352;2024-01-07T08:34:08;99250.66;;;1.41;100.00
85055;BME280;75391;48.300;16.352;2024-01-07T08:36:34;99247.03;;;1.49;100.00
85055;BME280;75391;48.300;16.352;2024-01-07T08:38:59;99247.75;;;1.57;100.00
85055;BME280;75391;48.300;16.352;2024-01-07T08:41:25;99252.81;;;1.65;100.00
85055;BME280;75391;48.300;16.352;2024-01-07T08:43:50;99259.84;;;1.62;100.00
85055;BME280;75391;48.300;16.352;2024-01-07T08:46:16;99261.63;;;1.58;100.00
85055;BME280;75391;48.300;16.352;2024-01-07T08:48:41;99265.06;;;2.06;100.00
85055;BME280;75391;48.300;16.352;2024-01-07T08:51:06;99273.75;;;1.60;100.00
85055;BME280;75391;48.300;16.352;2024-01-07T08:53:32;99284.41;;;1.47;100.00
85055;BME280;75391;48.300;16.352;2024-01-07T08:55:57;99286.56;;;1.73;100.00
85055;BME280;75391;48.300;16.352;2024-01-07T08:58:23;99282.38;;;1.64;100.00
85055;BME280;75391;48.300;16.352;2024-01-07T09:00:48;99290.69;;;1.83;100.00
85055;BME280;75391;48.300;16.352;2024-01-07T09:03:14;99295.84;;;1.38;100.00
85055;BME280;75391;48.300;16.352;2024-01-07T09:05:39;99282.66;;;1.49;100.00
85055;BME280;75391;48.300;16.352;2024-01-07T09:08:05;99293.75;;;1.58;100.00
85055;BME280;75391;48.300;16.352;2024-01-07T09:10:31;99295.00;;;1.36;100.00
85055;BME280;75391;48.300;16.352;2024-01-07T09:12:56;99306.63;;;1.15;100.00
85055;BME280;75391;48.300;16.352;2024-01-07T09:15:22;99313.22;;;1.38;100.00
85055;BME280;75391;48.300;16.352;2024-01-07T09:17:47;99312.88;;;1.57;100.00
85055;BME280;75391;48.300;16.352;2024-01-07T09:20:13;99300.75;;;1.56;100.00
85055;BME280;75391;48.300;16.352;2024-01-07T09:22:38;99315.91;;;1.33;100.00
85055;BME280;75391;48.300;16.352;2024-01-07T09:25:05;99310.22;;;1.59;100.00
85055;BME280;75391;48.300;16.352;2024-01-07T09:27:31;99296.88;;;1.77;100.00
85055;BME280;75391;48.300;16.352;2024-01-07T09:29:57;99297.59;;;1.87;100.00
85055;BME280;75391;48.300;16.352;2024-01-07T09:32:23;99306.13;;;1.46;100.00
85055;BME280;75391;48.300;16.352;2024-01-07T09:34:48;99314.47;;;1.14;100.00
85055;BME280;75391;48.300;16.352;2024-01-07T09:37:14;99310.06;;;1.19;100.00
85055;BME280;75391;48.300;16.352;2024-01-07T09:39:40;99311.88;;;1.14;100.00
85055;BME280;75391;48.300;16.352;2024-01-07T09:42:18;99299.56;;;1.74;100.00
85055;BME280;75391;48.300;16.352;2024-01-07T09:44:44;99306.13;;;1.46;100.00
85055;BME280;75391;48.300;16.352;2024-01-07T09:47:14;99297.66;;;1.82;100.00
85055;BME280;75391;48.300;16.352;2024-01-07T09:49:40;99306.19;;;1.43;100.00
85055;BME280;75391;48.300;16.352;2024-01-07T09:52:08;99305.78;;;1.15;100.00
85055;BME280;75391;48.300;16.352;2024-01-07T09:54:38;99314.75;;;0.95;100.00
85055;BME280;75391;48.300;16.352;2024-01-07T09:57:05;99309.19;;;1.17;100.00
85055;BME280;75391;48.300;16.352;2024-01-07T09:59:31;99309.06;;;0.67;100.00
85055;BME280;75391;48.300;16.352;2024-01-07T10:01:56;99310.63;;;1.36;100.00
85055;BME280;75391;48.300;16.352;2024-01-07T10:04:26;99312.81;;;1.08;100.00
85055;BME280;75391;48.300;16.352;2024-01-07T10:06:51;99313.28;;;0.76;100.00
85055;BME280;75391;48.300;16.352;2024-01-07T10:09:17;99313.56;;;1.16;100.00
85055;BME280;75391;48.300;16.352;2024-01-07T10:11:43;99310.00;;;0.63;100.00
85055;BME280;75391;48.300;16.352;2024-01-07T10:14:09;99310.28;;;1.03;100.00
85055;BME280;75391;48.300;16.352;2024-01-07T10:16:34;99315.78;;;0.84;100.00
85055;BME280;75391;48.300;16.352;2024-01-07T10:19:00;99306.19;;;0.87;100.00
85055;BME280;75391;48.300;16.352;2024-01-07T10:21:25;99317.44;;;0.88;100.00
85055;BME280;75391;48.300;16.352;2024-01-07T10:24:07;99312.31;;;0.85;100.00
85055;BME280;75391;48.300;16.352;2024-01-07T10:26:32;99312.09;;;0.98;100.00
85055;BME280;75391;48.300;16.352;2024-01-07T10:28:58;99307.53;;;1.13;100.00
85055;BME280;75391;48.300;16.352;2024-01-07T10:31:23;99305.06;;;1.03;100.00
85055;BME280;75391;48.300;16.352;2024-01-07T10:33:49;99304.34;;;0.31;100.00
85055;BME280;75391;48.300;16.352;2024-01-07T10:36:15;99306.13;;;0.27;100.00
85055;BME280;75391;48.300;16.352;2024-01-07T10:38:44;99309.97;;;0.66;100.00
85055;BME280;75391;48.300;16.352;2024-01-07T10:41:11;99314.84;;;0.89;100.00
85055;BME280;75391;48.300;16.352;2024-01-07T10:43:36;99309.34;;;1.09;100.00
85055;BME280;75391;48.300;16.352;2024-01-07T10:46:04;99308.38;;;0.55;100.00
85055;BME280;75391;48.300;16.352;2024-01-07T10:48:31;99308.34;;;0.56;100.00
85055;BME280;75391;48.300;16.352;2024-01-07T10:50:59;99310.56;;;0.85;100.00
85055;BME280;75391;48.300;16.352;2024-01-07T10:53:28;99320.03;;;0.91;100.00
85055;BME280;75391;48.300;16.352;2024-01-07T10:56:03;99321.25;;;0.64;100.00
85055;BME280;75391;48.300;16.352;2024-01-07T10:58:32;99315.56;;;0.99;100.00
85055;BME280;75391;48.300;16.352;2024-01-07T11:00:58;99315.97;;;0.71;100.00
85055;BME280;75391;48.300;16.352;2024-01-07T11:03:38;99316.13;;;1.19;100.00
85055;BME280;75391;48.300;16.352;2024-01-07T11:08:46;99319.53;;;0.63;100.00
85055;BME280;75391;48.300;16.352;2024-01-07T11:11:21;99312.47;;;0.72;100.00
85055;BME280;75391;48.300;16.352;2024-01-07T11:13:47;99320.81;;;0.96;100.00
85055;BME280;75391;48.300;16.352;2024-01-07T11:16:13;99313.06;;;0.91;100.00
85055;BME280;75391;48.300;16.352;2024-01-07T11:18:40;99313.09;;;0.88;100.00
85055;BME280;75391;48.300;16.352;2024-01-07T11:21:05;99309.16;;;0.61;100.00
85055;BME280;75391;48.300;16.352;2024-01-07T11:23:43;99308.72;;;0.92;100.00
85055;BME280;75391;48.300;16.352;2024-01-07T11:26:08;99315.63;;;0.93;100.00
85055;BME280;75391;48.300;16.352;2024-01-07T11:29:06;99300.44;;;0.65;100.00
85055;BME280;75391;48.300;16.352;2024-01-07T11:34:06;99309.63;;;0.89;100.00
85055;BME280;75391;48.300;16.352;2024-01-07T11:36:32;99310.00;;;0.62;100.00
85055;BME280;75391;48.300;16.352;2024-01-07T11:39:00;99310.69;;;0.77;100.00
85055;BME280;75391;48.300;16.352;2024-01-07T11:41:26;99305.38;;;0.84;100.00
85055;BME280;75391;48.300;16.352;2024-01-07T11:43:56;99306.00;;;1.01;100.00
85055;BME280;75391;48.300;16.352;2024-01-07T11:46:22;99314.00;;;0.87;100.00
85055;BME280;75391;48.300;16.352;2024-01-07T11:48:50;99308.06;;;0.76;100.00
85055;BME280;75391;48.300;16.352;2024-01-07T11:51:17;99313.84;;;0.98;100.00
85055;BME280;75391;48.300;16.352;2024-01-07T11:53:46;99315.63;;;0.96;100.00
85055;BME280;75391;48.300;16.352;2024-01-07T11:56:12;99305.09;;;1.00;100.00
85055;BME280;75391;48.300;16.352;2024-01-07T11:58:37;99312.78;;;1.10;100.00
85055;BME280;75391;48.300;16.352;2024-01-07T12:01:03;99311.69;;;1.24;100.00
85055;BME280;75391;48.300;16.352;2024-01-07T12:03:28;99308.13;;;1.31;100.00
85055;BME280;75391;48.300;16.352;2024-01-07T12:05:53;99308.66;;;0.95;100.00
85055;BME280;75391;48.300;16.352;2024-01-07T12:08:19;99325.28;;;1.42;100.00
85055;BME280;75391;48.300;16.352;2024-01-07T12:10:44;99312.31;;;1.40;100.00
85055;BME280;75391;48.300;16.352;2024-01-07T12:13:10;99310.22;;;1.08;100.00
85055;BME280;75391;48.300;16.352;2024-01-07T12:15:36;99306.66;;;1.12;100.00
85055;BME280;75391;48.300;16.352;2024-01-07T12:18:02;99308.09;;;1.33;100.00
85055;BME280;75391;48.300;16.352;2024-01-07T12:20:27;99312.38;;;1.37;100.00
85055;BME280;75391;48.300;16.352;2024-01-07T12:22:57;99310.59;;;1.39;100.00
85055;BME280;75391;48.300;16.352;2024-01-07T12:25:23;99305.56;;;1.27;100.00
85055;BME280;75391;48.300;16.352;2024-01-07T12:27:49;99316.03;;;1.25;100.00
85055;BME280;75391;48.300;16.352;2024-01-07T12:30:14;99309.72;;;1.39;100.00
85055;BME280;75391;48.300;16.352;2024-01-07T12:32:40;99314.13;;;1.37;100.00
85055;BME280;75391;48.300;16.352;2024-01-07T12:35:06;99306.19;;;1.43;100.00
85055;BME280;75391;48.300;16.352;2024-01-07T12:37:31;99305.81;;;1.12;100.00
85055;BME280;75391;48.300;16.352;2024-01-07T12:39:57;99309.94;;;1.26;100.00
85055;BME280;75391;48.300;16.352;2024-01-07T12:42:22;99303.28;;;1.09;100.00
85055;BME280;75391;48.300;16.352;2024-01-07T12:44:48;99308.25;;;1.22;100.00
85055;BME280;75391;48.300;16.352;2024-01-07T12:47:14;99307.28;;;1.28;100.00
85055;BME280;75391;48.300;16.352;2024-01-07T12:49:39;99304.31;;;0.97;100.00